Airfield :
LOGIN :

Register | Disclaimer

   EN    FR    IT 

 










Legend :    VFR   Marginal VFR   IFR   Intensive IFR   Very Intensive IFR
Visi :
Ceiling :
>= 8 km
>= 3000ft
5 to 8 km
1000 to 3000 ft
1500m to 5 km
500 to 1000 ft
800 to 1500m
200 to 500 ft
< 800m
< 200 ft
Symbols :   Thunderstorms  Fog  Heavy snow  Heavy precipitations  Wind > 20 kt
SIGMETs :     Misc.  Thunderstorms  Icing  Turbulence  Mountain Waves  Volcanic Ashes






- Airport Elevation : 157 ft
- IATA code : SXF


EDDB - Berlin Schönefeld

EXPIRED METARs :
  • 031520Z VRB04KT CAVOK 30/08 Q1015 NOSIG
  • 032320Z 25007G18KT CAVOK 22/13 Q1014 NOSIG
  • 032250Z 25005KT 140V270 CAVOK 22/12 Q1014 NOSIG
  • 032150Z 13006KT CAVOK 23/13 Q1014 NOSIG
  • 032120Z 13006KT CAVOK 23/12 Q1014 NOSIG

TAF TAF EDDB
Valid from the 04 at 00:00 until the 05 at 00:00 UTC


032300Z 0400/0424 VRB03KT CAVOK
BECMG 0400/0403 28007KT
PROB30
TEMPO 0410/0414 28015G25KT



MET'MAP, your aeronautical weather chart ! - Copyright ORBIFLY December 2007 - Disclaimer

ORBIFLY MET'MAP TEAM :

Programming & Development : Alexandra Zaïnal
Original concept : Baudouin d'Aumeries
Technical & hardware support : Manuel Goepfert
Assistance : Marc-Olivier Méhu




SOURCES & CREDITS :

   NOAA